Broadview, MT (59015)

6:15 AM MDT on September 17, 2014 (GMT -0600)
RAWS HORSE THIEF MT US | Change Station
CLOSE
Current Station
Personal Weather Station
Location: Roundup, MT
Elevation: 3479 ft
Nearby Weather Stations

Elev 3479 ft 46.43 °N, 108.67 °W | Updated 36 minutes ago

Mostly Cloudy
Mostly Cloudy
52 °F
Feels Like 52 °F
N
1
Wind Variable Wind from SSW
Gusts 8.0 mph

Today
High -- | Low -- °F
--% Chance of Precip.
Yesterday
High -- | Low -- °F
Precip. -- in
6:56 AM 7:23 PM
Last Quarter, 36% visible
Pressure 29.84 in
Visibility 10.0 miles
Clouds Few 15000 ft
Scattered Clouds 22000 ft
Dew Point 47 °F
Humidity 82%
Rainfall 0.00 in
Snow Depth 0 in , 0 in , 0 in
UV 0 out of 12
Pollen 6.00 out of 12
Air Quality Not available.
Flu Activity Not available.
METAR KBIL 171153Z 24005KT 10SM FEW150 SCT220 18/07 A2994 RMK AO2 SLP105 T01830067 10206 20150 53003

More Conditions Fewer Conditions

Pressure 29.84 in
Visibility 10.0 miles
Clouds Few 15000 ft
Scattered Clouds 22000 ft
Dew Point 47 °F
Humidity 82%
Rainfall 0.00 in
Snow Depth 0 in , 0 in , 0 in
UV 0 out of 12
Pollen 6.00 out of 12
Air Quality Not available.
Flu Activity Not available.
METAR KBIL 171153Z 24005KT 10SM FEW150 SCT220 18/07 A2994 RMK AO2 SLP105 T01830067 10206 20150 53003

More Conditions Fewer Conditions

10-Day Weather Forecast

Almanac

Astronomy

Sep. 17, 2014 Rise Set
Actual Time 6:56 AM MDT 7:23 PM MDT
Civil Twilight 6:26 AM MDT 7:53 PM MDT
Nautical Twilight 5:50 AM MDT 8:28 PM MDT
Astronomical Twilight 5:13 AM MDT 9:05 PM MDT
Moon 12:44 AM MDT 3:48 PM MDT
Length of Visible Light 13h 26m
Length of Day
12h 26m
Tomorrow will be 3m 14s shorter.
Last Quarter, 36% of the Moon is Illuminated
Today
Last Quarter
Sep 24
New
Oct 1
First Quarter
Oct 8
Full
Oct 15
Last Quarter

Today's Extremes

State Highs State Lows

Community

WunderPhotos

Upload Photos

1,754,008 photos uploaded!

Nearby

Snow Depth

Station Depth Elevation
South Fork Shields 0 in 8100 ft
Burnt Mountain 0 in 5880 ft
Nez Perce Camp 0 in 5650 ft
Stuart Mountain 0 in 7400 ft
Wood Creek 1 in 5960 ft

Earthquake Activity

City Distance Mag. Time & Date
No recent earthquake activity has been reported nearby.
Minimum magnitude displayed is 2.5.

Coastal Water Temperatures

Place Temperature
No Stations Reporting

Nearby Weather Stations